Tyn-y-Gongl, United Kingdom
Current Conditions -  °F | °C
As of 4:50 AM on Saturday 29 Nov 2014 (Local Time) from EGOV Reporting Station
Clear Clear  
Wind Chill: 41°   Ceiling: Unl
Heat Index: 41°   Visibility: 1.6mi
Dew Point: 41°   Wind: 2mph
Humidity: 100%   Direction: 10°N
Pressure: 29.74"   Gusts: NA
Location:  53.32°N, 4.25°W
Report Text: EGOV 290450Z AUTO 01002KT 2600 NCD 05/05 Q1007
Loading
Personal Weather Stations






























Interactive Weather Map New forecast layout! Learn more

10-Day Weather Forecast

Advertisements
Track Severe Weather on mobile